createdAt,value
2018-07-31T00:01:25.030Z,24.20
2018-07-31T00:03:53.888Z,24.20
2018-07-31T00:06:24.937Z,24.10
2018-07-31T00:08:55.005Z,24.10
2018-07-31T00:11:23.333Z,24.00
2018-07-31T00:13:51.537Z,24.00
2018-07-31T00:16:19.788Z,24.00
2018-07-31T00:18:48.063Z,23.90
2018-07-31T00:21:16.233Z,23.90
2018-07-31T00:23:44.474Z,23.90
2018-07-31T00:26:12.781Z,23.80
2018-07-31T00:28:41.001Z,23.80
2018-07-31T00:31:09.238Z,23.80
2018-07-31T00:33:37.467Z,23.80
2018-07-31T00:36:05.714Z,23.70
2018-07-31T00:38:34.031Z,23.70
2018-07-31T00:41:02.273Z,23.60
2018-07-31T00:43:30.470Z,23.60
2018-07-31T00:45:58.731Z,23.60
2018-07-31T00:48:26.891Z,23.60
2018-07-31T00:50:55.399Z,23.50
2018-07-31T00:53:23.724Z,23.50
2018-07-31T00:55:51.925Z,23.40
2018-07-31T01:03:16.267Z,23.40
2018-07-31T01:05:44.484Z,23.40
2018-07-31T01:08:12.727Z,23.40
2018-07-31T01:10:40.970Z,23.30
2018-07-31T01:13:09.757Z,23.30
2018-07-31T01:15:37.929Z,23.30
2018-07-31T01:18:06.159Z,23.20
2018-07-31T01:20:34.337Z,23.20
2018-07-31T01:23:02.489Z,23.20
2018-07-31T01:25:30.665Z,23.10
2018-07-31T01:27:58.885Z,23.10
2018-07-31T01:30:27.079Z,23.10
2018-07-31T01:32:55.249Z,23.10
2018-07-31T01:35:23.427Z,23.10
2018-07-31T01:37:51.653Z,23.10
2018-07-31T01:40:19.783Z,23.00
2018-07-31T01:42:47.954Z,23.10
2018-07-31T01:47:47.341Z,23.00
2018-07-31T01:50:15.852Z,23.00
2018-07-31T01:52:44.057Z,23.00
2018-07-31T01:55:12.372Z,23.00
2018-07-31T01:57:40.585Z,22.90
2018-07-31T02:00:08.901Z,22.90
2018-07-31T02:02:37.179Z,22.90
2018-07-31T02:05:05.411Z,22.80
2018-07-31T02:07:33.785Z,22.80
2018-07-31T02:10:01.935Z,22.80
2018-07-31T02:12:30.145Z,22.70
2018-07-31T02:14:58.337Z,22.80
2018-07-31T02:17:26.692Z,22.80
2018-07-31T02:19:54.767Z,22.70
2018-07-31T02:22:22.989Z,22.70
2018-07-31T02:24:51.158Z,22.70
2018-07-31T02:32:20.893Z,22.50
2018-07-31T02:34:49.183Z,22.50
2018-07-31T02:37:17.345Z,22.50
2018-07-31T02:39:45.559Z,22.50
2018-07-31T02:42:13.739Z,22.50
2018-07-31T02:44:42.003Z,22.50
2018-07-31T02:47:10.183Z,22.40
2018-07-31T02:49:38.383Z,22.40
2018-07-31T02:52:06.629Z,22.40
2018-07-31T02:57:09.497Z,22.40
2018-07-31T02:59:37.716Z,22.40
2018-07-31T03:02:06.447Z,22.40
2018-07-31T03:04:34.595Z,22.40
2018-07-31T03:07:02.807Z,22.40
2018-07-31T03:09:30.974Z,22.40
2018-07-31T03:11:59.196Z,22.40
2018-07-31T03:14:27.327Z,22.40
2018-07-31T03:16:56.811Z,22.40
2018-07-31T03:19:25.069Z,22.30
2018-07-31T03:24:21.211Z,22.30
2018-07-31T03:26:49.463Z,22.30
2018-07-31T03:29:17.661Z,22.30
2018-07-31T03:31:45.867Z,22.30
2018-07-31T03:34:14.326Z,22.30
2018-07-31T03:36:42.630Z,22.30
2018-07-31T03:39:11.191Z,22.30
2018-07-31T03:41:39.660Z,22.20
2018-07-31T03:44:07.958Z,22.30
2018-07-31T03:46:36.311Z,22.20
2018-07-31T03:49:05.540Z,22.30
2018-07-31T03:51:33.688Z,22.30
2018-07-31T03:54:02.099Z,22.30
2018-07-31T03:56:30.236Z,22.30
2018-07-31T03:58:58.456Z,22.30
2018-07-31T04:01:26.748Z,22.30
2018-07-31T04:03:54.938Z,22.30
2018-07-31T04:06:23.216Z,22.30
2018-07-31T04:08:51.498Z,22.30
2018-07-31T04:11:19.706Z,22.40
2018-07-31T04:13:47.974Z,22.40
2018-07-31T04:16:16.188Z,22.40
2018-07-31T04:18:44.610Z,22.40
2018-07-31T04:21:12.881Z,22.40
2018-07-31T04:23:41.057Z,22.50
2018-07-31T04:26:09.220Z,22.50
2018-07-31T04:28:37.976Z,22.60
2018-07-31T04:31:06.597Z,22.60
2018-07-31T04:33:34.774Z,22.70
2018-07-31T04:36:03.164Z,22.70
2018-07-31T04:38:31.327Z,22.70
2018-07-31T04:43:27.536Z,22.80
2018-07-31T04:45:55.802Z,22.80
2018-07-31T04:48:24.634Z,22.80
2018-07-31T04:50:52.846Z,22.90
2018-07-31T04:53:20.978Z,23.00
2018-07-31T04:55:49.340Z,23.10
2018-07-31T04:58:17.532Z,23.60
2018-07-31T05:00:45.754Z,24.60
2018-07-31T05:03:13.905Z,25.60
2018-07-31T05:05:42.156Z,26.50
2018-07-31T05:08:10.318Z,27.30
2018-07-31T05:10:38.600Z,27.90
2018-07-31T05:13:06.822Z,28.40
2018-07-31T05:15:35.102Z,28.60
2018-07-31T05:18:03.326Z,28.80
2018-07-31T05:22:59.356Z,29.40
2018-07-31T05:27:55.452Z,30.00
2018-07-31T05:30:23.618Z,30.40
2018-07-31T05:32:52.032Z,30.60
2018-07-31T05:35:20.136Z,30.80
2018-07-31T05:37:48.465Z,31.00
2018-07-31T05:40:16.618Z,31.10
2018-07-31T05:42:44.784Z,31.10
2018-07-31T05:47:40.888Z,31.20
2018-07-31T05:50:10.425Z,31.20
2018-07-31T05:52:39.086Z,31.30
2018-07-31T05:55:08.068Z,31.40
2018-07-31T05:57:36.498Z,31.50
2018-07-31T06:00:06.153Z,31.80
2018-07-31T06:02:34.314Z,31.80
2018-07-31T06:07:30.506Z,32.00
2018-07-31T06:09:58.713Z,32.00
2018-07-31T06:12:26.936Z,32.10
2018-07-31T06:17:23.364Z,32.00
2018-07-31T06:19:51.480Z,32.00
2018-07-31T06:22:19.745Z,31.90
2018-07-31T06:27:16.257Z,32.00
2018-07-31T06:29:44.459Z,32.00
2018-07-31T06:32:12.789Z,32.00
2018-07-31T06:34:40.986Z,32.00
2018-07-31T06:37:09.204Z,32.10
2018-07-31T06:39:37.601Z,32.20
2018-07-31T06:42:05.752Z,32.10
2018-07-31T06:44:34.048Z,32.20
2018-07-31T06:47:02.223Z,32.30
2018-07-31T06:49:30.454Z,32.40
2018-07-31T06:51:58.668Z,32.40
2018-07-31T06:54:26.903Z,32.40
2018-07-31T06:56:55.153Z,32.40
2018-07-31T06:59:23.456Z,32.40
2018-07-31T07:01:51.716Z,32.50
2018-07-31T07:04:19.962Z,32.50
2018-07-31T07:06:48.325Z,32.50
2018-07-31T07:09:16.681Z,32.60
2018-07-31T07:11:44.781Z,32.60
2018-07-31T07:14:12.951Z,32.60
2018-07-31T07:16:41.109Z,32.70
2018-07-31T07:19:09.532Z,32.60
2018-07-31T07:21:37.758Z,32.60
2018-07-31T07:24:06.076Z,32.50
2018-07-31T07:26:34.284Z,32.40
2018-07-31T07:29:02.492Z,32.40
2018-07-31T07:31:30.606Z,32.50
2018-07-31T07:33:58.893Z,32.60
2018-07-31T07:36:26.975Z,32.50
2018-07-31T07:38:55.268Z,32.60
2018-07-31T07:41:23.428Z,32.50
2018-07-31T07:43:51.678Z,32.60
2018-07-31T07:46:19.987Z,32.60
2018-07-31T07:48:48.170Z,32.70
2018-07-31T07:51:16.331Z,32.60
2018-07-31T07:53:44.537Z,32.60
2018-07-31T07:56:13.046Z,32.50
2018-07-31T07:58:41.302Z,32.40
2018-07-31T08:01:09.537Z,32.50
2018-07-31T08:03:37.895Z,32.30
2018-07-31T08:06:06.206Z,32.20
2018-07-31T08:11:02.526Z,32.20
2018-07-31T08:13:30.887Z,32.20
2018-07-31T08:15:59.031Z,32.20
2018-07-31T08:18:27.262Z,32.30
2018-07-31T08:20:55.520Z,32.30
2018-07-31T08:23:23.840Z,32.30
2018-07-31T08:25:52.172Z,32.30
2018-07-31T08:28:20.370Z,32.30
2018-07-31T08:30:48.545Z,32.30
2018-07-31T08:33:16.794Z,32.20
2018-07-31T08:35:45.107Z,32.10
2018-07-31T08:38:13.414Z,32.10
2018-07-31T08:40:41.662Z,32.10
2018-07-31T08:43:09.902Z,32.10
2018-07-31T08:45:38.100Z,32.10
2018-07-31T08:48:06.288Z,32.00
2018-07-31T08:50:34.464Z,31.90
2018-07-31T08:53:02.660Z,31.90
2018-07-31T08:55:30.846Z,32.00
2018-07-31T08:57:59.120Z,31.90
2018-07-31T09:00:27.314Z,31.90
2018-07-31T09:02:55.602Z,32.00
2018-07-31T09:05:23.772Z,32.00
2018-07-31T09:07:51.934Z,32.10
2018-07-31T09:10:20.190Z,32.00
2018-07-31T09:12:48.534Z,32.10
2018-07-31T09:15:16.776Z,32.10
2018-07-31T09:17:44.970Z,32.10
2018-07-31T09:20:13.203Z,32.10
2018-07-31T09:25:09.543Z,32.30
2018-07-31T09:27:37.778Z,32.30
2018-07-31T09:30:06.256Z,32.20
2018-07-31T09:33:10.482Z,32.20
2018-07-31T09:35:38.688Z,32.10
2018-07-31T09:38:06.951Z,32.20
2018-07-31T09:40:35.035Z,32.30
2018-07-31T09:43:03.190Z,32.30
2018-07-31T09:45:31.422Z,32.40
2018-07-31T09:48:00.343Z,32.50
2018-07-31T09:50:29.060Z,32.40
2018-07-31T09:52:58.264Z,32.30
2018-07-31T09:55:26.433Z,32.40
2018-07-31T09:57:54.612Z,32.50
2018-07-31T10:00:29.142Z,32.60
2018-07-31T10:02:57.404Z,32.60
2018-07-31T10:05:25.859Z,32.50
2018-07-31T10:07:54.019Z,32.60
2018-07-31T10:12:50.262Z,32.60
2018-07-31T10:15:18.454Z,32.60
2018-07-31T10:17:47.132Z,32.70
2018-07-31T10:20:15.274Z,32.70
2018-07-31T10:22:43.487Z,32.70
2018-07-31T10:25:11.663Z,32.70
2018-07-31T10:27:39.870Z,32.70
2018-07-31T10:30:08.210Z,32.80
2018-07-31T10:32:36.562Z,32.90
2018-07-31T10:35:05.452Z,32.90
2018-07-31T10:37:33.674Z,32.90
2018-07-31T10:40:01.912Z,32.80
2018-07-31T10:42:30.150Z,32.80
2018-07-31T10:44:58.312Z,32.80
2018-07-31T10:47:26.694Z,32.90
2018-07-31T10:49:54.914Z,32.90
2018-07-31T10:52:23.074Z,32.90
2018-07-31T10:57:26.091Z,33.10
2018-07-31T10:59:54.317Z,33.20
2018-07-31T11:02:22.515Z,33.20
2018-07-31T11:04:51.904Z,33.20
2018-07-31T11:07:20.084Z,33.30
2018-07-31T11:09:48.266Z,33.30
2018-07-31T11:12:17.318Z,33.30
2018-07-31T11:14:45.480Z,33.30
2018-07-31T11:17:13.704Z,33.20
2018-07-31T11:19:41.868Z,33.20
2018-07-31T11:22:10.074Z,33.20
2018-07-31T11:24:38.291Z,33.30
2018-07-31T11:27:06.567Z,33.30
2018-07-31T11:29:34.766Z,33.30
2018-07-31T11:32:03.021Z,33.30
2018-07-31T11:34:31.174Z,33.30
2018-07-31T11:36:59.348Z,33.40
2018-07-31T11:39:27.467Z,33.40
2018-07-31T11:41:55.656Z,33.50
2018-07-31T11:44:23.810Z,33.40
2018-07-31T11:46:52.048Z,33.40
2018-07-31T11:49:20.177Z,33.30
2018-07-31T11:51:48.348Z,33.30
2018-07-31T11:54:16.522Z,33.40
2018-07-31T11:56:44.735Z,33.50
2018-07-31T11:59:12.871Z,33.50
2018-07-31T12:01:41.134Z,33.40
2018-07-31T12:04:09.792Z,33.40
2018-07-31T12:06:37.988Z,33.40
2018-07-31T12:09:10.960Z,33.50
2018-07-31T12:11:39.152Z,33.50
2018-07-31T12:14:07.335Z,33.50
2018-07-31T12:16:35.510Z,33.60
2018-07-31T12:19:03.778Z,33.60
2018-07-31T12:21:32.204Z,33.60
2018-07-31T12:24:00.381Z,33.60
2018-07-31T12:26:28.540Z,33.60
2018-07-31T12:28:56.705Z,33.60
2018-07-31T12:31:25.098Z,33.70
2018-07-31T12:33:53.420Z,33.70
2018-07-31T12:36:21.554Z,33.70
2018-07-31T12:38:49.757Z,33.70
2018-07-31T12:41:18.009Z,33.70
2018-07-31T12:43:46.497Z,33.80
2018-07-31T12:46:14.688Z,33.80
2018-07-31T12:48:43.018Z,33.90
2018-07-31T12:51:11.114Z,33.90
2018-07-31T12:53:39.305Z,33.90
2018-07-31T12:56:07.464Z,33.90
2018-07-31T12:58:35.608Z,33.90
2018-07-31T13:01:03.826Z,33.90
2018-07-31T13:03:32.018Z,33.90
2018-07-31T13:06:00.368Z,33.90
2018-07-31T13:08:28.539Z,33.90
2018-07-31T13:10:56.814Z,33.90
2018-07-31T13:13:24.997Z,33.80
2018-07-31T13:15:53.254Z,33.90
2018-07-31T13:18:21.433Z,33.90
2018-07-31T13:20:49.584Z,34.00
2018-07-31T13:23:17.758Z,34.10
2018-07-31T13:25:45.950Z,34.10
2018-07-31T13:28:14.084Z,34.10
2018-07-31T13:30:42.385Z,34.10
2018-07-31T13:33:10.553Z,34.10
2018-07-31T13:35:38.786Z,34.10
2018-07-31T13:38:07.174Z,34.10
2018-07-31T13:40:35.374Z,34.10
2018-07-31T13:43:03.511Z,34.20
2018-07-31T13:45:31.745Z,34.20
2018-07-31T13:47:59.930Z,34.30
2018-07-31T13:50:28.088Z,34.30
2018-07-31T13:52:56.259Z,34.40
2018-07-31T13:55:24.429Z,34.40
2018-07-31T13:57:52.752Z,34.30
2018-07-31T14:00:20.886Z,34.30
2018-07-31T14:02:49.102Z,34.30
2018-07-31T14:05:17.330Z,34.30
2018-07-31T14:07:45.527Z,34.30
2018-07-31T14:10:13.791Z,34.20
2018-07-31T14:12:42.047Z,34.20
2018-07-31T14:15:10.179Z,34.20
2018-07-31T14:17:38.509Z,34.20
2018-07-31T14:20:06.728Z,34.30
2018-07-31T14:22:34.924Z,34.20
2018-07-31T14:25:03.178Z,34.20
2018-07-31T14:27:31.314Z,34.30
2018-07-31T14:29:59.534Z,34.30
2018-07-31T14:32:28.398Z,34.30
2018-07-31T14:34:56.695Z,34.30
2018-07-31T14:37:24.853Z,34.20
2018-07-31T14:39:52.998Z,34.20
2018-07-31T14:42:21.151Z,34.10
2018-07-31T14:44:49.443Z,34.10
2018-07-31T14:47:17.589Z,34.10
2018-07-31T14:49:45.906Z,34.10
2018-07-31T14:52:14.159Z,34.10
2018-07-31T14:54:42.306Z,34.10
2018-07-31T14:57:10.563Z,34.10
2018-07-31T15:02:07.964Z,33.90
2018-07-31T15:04:36.228Z,34.00
2018-07-31T15:07:04.414Z,34.00
2018-07-31T15:09:32.561Z,34.00
2018-07-31T15:12:00.722Z,34.00
2018-07-31T15:14:28.976Z,34.00
2018-07-31T15:16:57.236Z,34.00
2018-07-31T15:19:25.441Z,33.90
2018-07-31T15:21:54.200Z,34.00
2018-07-31T15:24:22.378Z,34.00
2018-07-31T15:26:50.508Z,34.00
2018-07-31T15:29:18.758Z,34.00
2018-07-31T15:31:46.947Z,33.90
2018-07-31T15:34:15.277Z,33.90
2018-07-31T15:36:43.592Z,33.90
2018-07-31T15:39:13.324Z,34.00
2018-07-31T15:41:41.900Z,33.90
2018-07-31T15:44:10.501Z,33.80
2018-07-31T15:46:38.780Z,33.90
2018-07-31T15:49:06.964Z,33.90
2018-07-31T15:51:35.156Z,33.90
2018-07-31T15:54:03.389Z,33.90
2018-07-31T15:56:31.598Z,33.90
2018-07-31T15:58:59.780Z,33.80
2018-07-31T16:01:29.073Z,33.80
2018-07-31T16:03:57.658Z,33.80
2018-07-31T16:06:25.876Z,33.70
2018-07-31T16:08:54.253Z,33.70
2018-07-31T16:11:22.533Z,33.70
2018-07-31T16:13:50.798Z,33.60
2018-07-31T16:16:19.042Z,33.60
2018-07-31T16:18:47.265Z,33.60
2018-07-31T16:21:15.476Z,33.50
2018-07-31T16:23:44.136Z,33.50
2018-07-31T16:26:12.626Z,33.50
2018-07-31T16:28:40.900Z,33.50
2018-07-31T16:31:09.393Z,33.40
2018-07-31T16:33:37.566Z,33.40
2018-07-31T16:36:05.674Z,33.30
2018-07-31T16:38:33.932Z,33.30
2018-07-31T16:41:02.193Z,33.30
2018-07-31T16:43:30.704Z,33.30
2018-07-31T16:45:58.947Z,33.30
2018-07-31T16:48:27.399Z,33.20
2018-07-31T16:50:55.564Z,33.20
2018-07-31T16:53:23.917Z,33.20
2018-07-31T16:55:52.054Z,33.20
2018-07-31T16:58:20.259Z,33.20
2018-07-31T17:00:48.432Z,33.20
2018-07-31T17:03:16.580Z,33.20
2018-07-31T17:05:44.740Z,33.10
2018-07-31T17:08:12.976Z,33.10
2018-07-31T17:10:41.161Z,33.00
2018-07-31T17:13:09.273Z,33.00
2018-07-31T17:15:37.510Z,33.00
2018-07-31T17:18:05.680Z,32.90
2018-07-31T17:20:33.855Z,32.90
2018-07-31T17:23:02.058Z,32.90
2018-07-31T17:25:31.060Z,32.80
2018-07-31T17:27:59.327Z,32.80
2018-07-31T17:30:27.639Z,32.70
2018-07-31T17:32:55.836Z,32.70
2018-07-31T17:35:25.467Z,32.70
2018-07-31T17:37:53.718Z,32.60
2018-07-31T17:42:50.426Z,32.50
2018-07-31T17:45:18.558Z,32.40
2018-07-31T17:47:46.792Z,32.30
2018-07-31T17:50:15.180Z,32.20
2018-07-31T17:52:43.865Z,32.20
2018-07-31T17:55:12.025Z,32.20
2018-07-31T17:57:40.589Z,32.10
2018-07-31T18:00:08.770Z,32.00
2018-07-31T18:02:36.986Z,32.00
2018-07-31T18:05:07.536Z,31.90
2018-07-31T18:07:35.802Z,31.90
2018-07-31T18:10:05.791Z,31.70
2018-07-31T18:12:34.019Z,31.70
2018-07-31T18:15:02.523Z,31.60
2018-07-31T18:17:30.734Z,31.60
2018-07-31T18:22:27.120Z,31.50
2018-07-31T18:24:55.596Z,31.40
2018-07-31T18:27:24.124Z,31.30
2018-07-31T18:29:52.642Z,31.30
2018-07-31T18:32:20.786Z,31.30
2018-07-31T18:34:49.158Z,31.20
2018-07-31T18:37:17.308Z,31.20
2018-07-31T18:39:45.448Z,31.10
2018-07-31T18:42:13.644Z,31.00
2018-07-31T18:44:42.110Z,30.90
2018-07-31T18:47:10.277Z,30.90
2018-07-31T18:49:38.482Z,30.80
2018-07-31T18:52:06.734Z,30.70
2018-07-31T18:54:34.947Z,30.60
2018-07-31T18:57:03.266Z,30.60
2018-07-31T18:59:31.418Z,30.50
2018-07-31T19:01:59.778Z,30.40
2018-07-31T19:04:27.900Z,30.40
2018-07-31T19:06:56.074Z,30.30
2018-07-31T19:09:24.271Z,30.20
2018-07-31T19:11:52.465Z,30.20
2018-07-31T19:14:20.760Z,30.20
2018-07-31T19:16:48.929Z,30.20
2018-07-31T19:19:17.288Z,30.10
2018-07-31T19:21:45.482Z,30.10
2018-07-31T19:24:13.712Z,30.00
2018-07-31T19:26:43.433Z,30.00
2018-07-31T19:29:11.701Z,29.90
2018-07-31T19:31:39.806Z,29.80
2018-07-31T19:34:07.979Z,29.80
2018-07-31T19:36:36.093Z,29.70
2018-07-31T19:39:05.960Z,29.70
2018-07-31T19:41:34.607Z,29.60
2018-07-31T19:44:02.792Z,29.50
2018-07-31T19:46:31.090Z,29.50
2018-07-31T19:48:59.240Z,29.40
2018-07-31T19:51:27.431Z,29.30
2018-07-31T19:53:55.630Z,29.20
2018-07-31T19:56:23.949Z,29.20
2018-07-31T19:58:52.454Z,29.20
2018-07-31T20:01:20.662Z,29.30
2018-07-31T20:03:48.829Z,29.30
2018-07-31T20:06:16.984Z,29.30
2018-07-31T20:08:45.549Z,29.30
2018-07-31T20:11:13.760Z,29.20
2018-07-31T20:13:42.176Z,29.20
2018-07-31T20:16:10.518Z,29.10
2018-07-31T20:18:38.709Z,29.10
2018-07-31T20:21:07.818Z,29.10
2018-07-31T20:23:36.005Z,29.00
2018-07-31T20:26:04.197Z,29.00
2018-07-31T20:28:32.516Z,28.90
2018-07-31T20:31:00.898Z,28.90
2018-07-31T20:33:29.483Z,28.90
2018-07-31T20:35:57.727Z,28.90
2018-07-31T20:38:25.954Z,28.90
2018-07-31T20:40:54.254Z,28.90
2018-07-31T20:43:22.769Z,28.90
2018-07-31T20:45:50.965Z,28.80
2018-07-31T20:48:19.175Z,28.80
2018-07-31T20:50:47.379Z,28.80
2018-07-31T20:53:15.594Z,28.80
2018-07-31T20:58:11.905Z,28.70
2018-07-31T21:00:40.089Z,28.70
2018-07-31T21:03:08.304Z,28.70
2018-07-31T21:05:36.461Z,28.60
2018-07-31T21:08:04.628Z,28.60
2018-07-31T21:10:32.810Z,28.60
2018-07-31T21:13:01.035Z,28.50
2018-07-31T21:15:29.252Z,28.50
2018-07-31T21:17:58.292Z,28.50
2018-07-31T21:20:26.620Z,28.40
2018-07-31T21:22:54.793Z,28.40
2018-07-31T21:25:23.054Z,28.30
2018-07-31T21:27:57.863Z,28.30
2018-07-31T21:30:26.227Z,28.30
2018-07-31T21:32:54.467Z,28.20
2018-07-31T21:35:23.665Z,28.20
2018-07-31T21:40:20.137Z,28.10
2018-07-31T21:42:48.523Z,28.10
2018-07-31T21:45:16.895Z,28.00
2018-07-31T21:47:45.102Z,28.00
2018-07-31T21:50:13.243Z,27.90
2018-07-31T21:52:41.465Z,27.90
2018-07-31T21:55:09.722Z,27.90
2018-07-31T21:57:38.006Z,27.80
2018-07-31T22:00:08.655Z,27.80
2018-07-31T22:02:36.891Z,27.80
2018-07-31T22:05:05.164Z,27.70
2018-07-31T22:07:33.344Z,27.70
2018-07-31T22:10:01.570Z,27.60
2018-07-31T22:12:29.801Z,27.60
2018-07-31T22:14:58.155Z,27.50
2018-07-31T22:17:26.779Z,27.50
2018-07-31T22:22:22.880Z,27.40
2018-07-31T22:24:53.183Z,27.40
2018-07-31T22:29:54.280Z,27.40
2018-07-31T22:32:26.087Z,27.30
2018-07-31T22:37:25.489Z,27.30
2018-07-31T22:39:53.996Z,27.30
2018-07-31T22:44:50.171Z,27.20
2018-07-31T22:47:18.348Z,27.20
2018-07-31T22:49:46.711Z,27.10
2018-07-31T22:52:15.694Z,27.10
2018-07-31T22:57:12.350Z,27.00
2018-07-31T22:59:40.540Z,26.90
2018-07-31T23:02:08.903Z,26.90
2018-07-31T23:04:37.100Z,26.80
2018-07-31T23:07:05.350Z,26.80
2018-07-31T23:09:33.496Z,26.80
2018-07-31T23:12:03.106Z,26.80
2018-07-31T23:14:31.435Z,26.80
2018-07-31T23:16:59.671Z,26.70
2018-07-31T23:19:27.902Z,26.70
2018-07-31T23:21:56.153Z,26.70
2018-07-31T23:24:24.441Z,26.70
2018-07-31T23:26:52.685Z,26.60
2018-07-31T23:29:20.982Z,26.60
2018-07-31T23:31:49.159Z,26.60
2018-07-31T23:34:17.417Z,26.50
2018-07-31T23:36:45.705Z,26.50
2018-07-31T23:39:13.953Z,26.50
2018-07-31T23:41:42.727Z,26.40
2018-07-31T23:44:10.947Z,26.40
2018-07-31T23:46:39.397Z,26.40
2018-07-31T23:49:07.739Z,26.40
2018-07-31T23:51:35.923Z,26.30
2018-07-31T23:54:05.531Z,26.30
2018-07-31T23:56:34.253Z,26.30
2018-07-31T23:59:02.506Z,26.20
